createdAt,value
2018-12-06T00:02:27.984Z,101579.58
2018-12-06T00:04:57.321Z,101575.72
2018-12-06T00:07:26.726Z,101574.72
2018-12-06T00:09:56.074Z,101576.50
2018-12-06T00:12:25.380Z,101570.65
2018-12-06T00:15:10.287Z,101561.65
2018-12-06T00:17:39.560Z,101564.78
2018-12-06T00:20:09.052Z,101564.98
2018-12-06T00:22:38.390Z,101547.58
2018-12-06T00:25:07.830Z,101539.39
2018-12-06T00:27:37.099Z,101542.24
2018-12-06T00:30:23.391Z,101539.55
2018-12-06T00:32:52.697Z,101544.24
2018-12-06T00:35:22.459Z,101550.55
2018-12-06T00:37:52.505Z,101545.41
2018-12-06T00:40:22.477Z,101553.20
2018-12-06T00:42:52.430Z,101549.84
2018-12-06T00:45:22.462Z,101543.62
2018-12-06T00:47:52.544Z,101547.89
2018-12-06T00:50:22.639Z,101544.20
2018-12-06T00:52:52.514Z,101538.56
2018-12-06T00:55:22.595Z,101531.77
2018-12-06T00:57:52.577Z,101531.69
2018-12-06T01:00:22.671Z,101522.72
2018-12-06T01:02:52.621Z,101512.01
2018-12-06T01:05:22.849Z,101506.54
2018-12-06T01:07:52.718Z,101504.11
2018-12-06T01:10:22.673Z,101499.07
2018-12-06T01:12:52.808Z,101495.05
2018-12-06T01:15:22.836Z,101487.31
2018-12-06T01:17:52.738Z,101485.19
2018-12-06T01:20:22.689Z,101489.72
2018-12-06T01:22:51.991Z,101491.63
2018-12-06T01:25:21.332Z,101486.05
2018-12-06T01:27:50.605Z,101487.67
2018-12-06T01:30:20.008Z,101491.91
2018-12-06T01:32:49.285Z,101487.20
2018-12-06T01:35:18.656Z,101484.92
2018-12-06T01:37:47.972Z,101484.81
2018-12-06T01:40:17.260Z,101480.92
2018-12-06T01:42:46.597Z,101475.78
2018-12-06T01:45:15.881Z,101475.56
2018-12-06T01:47:45.178Z,101469.52
2018-12-06T01:50:14.462Z,101469.47
2018-12-06T01:52:43.728Z,101467.58
2018-12-06T01:55:13.156Z,101462.94
2018-12-06T01:57:42.441Z,101457.34
2018-12-06T02:00:12.196Z,101449.89
2018-12-06T02:02:41.477Z,101452.42
2018-12-06T02:05:10.945Z,101449.80
2018-12-06T02:07:40.274Z,101449.45
2018-12-06T02:10:09.806Z,101443.13
2018-12-06T02:12:39.112Z,101437.57
2018-12-06T02:15:15.054Z,101435.84
2018-12-06T02:17:44.387Z,101434.28
2018-12-06T02:20:13.683Z,101433.72
2018-12-06T02:22:49.562Z,101431.23
2018-12-06T02:25:18.871Z,101426.97
2018-12-06T02:27:48.188Z,101415.75
2018-12-06T02:30:17.492Z,101408.09
2018-12-06T02:32:46.801Z,101398.70
2018-12-06T02:35:16.129Z,101391.53
2018-12-06T02:37:45.566Z,101376.72
2018-12-06T02:40:15.095Z,101363.11
2018-12-06T02:42:44.405Z,101358.98
2018-12-06T02:45:13.938Z,101346.13
2018-12-06T02:47:43.220Z,101348.22
2018-12-06T02:50:12.583Z,101344.06
2018-12-06T02:52:41.866Z,101342.93
2018-12-06T02:55:11.237Z,101344.70
2018-12-06T02:57:40.495Z,101347.95
2018-12-06T03:00:09.962Z,101354.78
2018-12-06T03:02:39.465Z,101353.77
2018-12-06T03:05:08.901Z,101359.22
2018-12-06T03:07:38.209Z,101356.89
2018-12-06T03:10:07.792Z,101355.02
2018-12-06T03:12:40.081Z,101363.77
2018-12-06T03:15:09.575Z,101364.45
2018-12-06T03:17:39.614Z,101370.11
2018-12-06T03:20:09.169Z,101373.51
2018-12-06T03:22:38.427Z,101378.27
2018-12-06T03:25:07.958Z,101377.13
2018-12-06T03:27:37.272Z,101373.91
2018-12-06T03:30:07.207Z,101375.20
2018-12-06T03:32:36.834Z,101368.61
2018-12-06T03:35:06.143Z,101375.97
2018-12-06T03:37:35.480Z,101376.59
2018-12-06T03:40:05.792Z,101376.94
2018-12-06T03:42:35.241Z,101368.75
2018-12-06T03:45:04.796Z,101361.22
2018-12-06T03:47:34.088Z,101365.73
2018-12-06T03:50:03.498Z,101370.62
2018-12-06T03:52:32.812Z,101375.69
2018-12-06T03:55:02.133Z,101368.87
2018-12-06T03:57:31.492Z,101366.78
2018-12-06T04:00:00.763Z,101356.75
2018-12-06T04:02:30.074Z,101366.77
2018-12-06T04:04:59.385Z,101362.16
2018-12-06T04:07:28.711Z,101359.03
2018-12-06T04:09:58.102Z,101364.00
2018-12-06T04:12:27.486Z,101370.41
2018-12-06T04:14:57.552Z,101371.24
2018-12-06T04:17:27.468Z,101375.27
2018-12-06T04:19:57.724Z,101378.06
2018-12-06T04:22:27.863Z,101380.35
2018-12-06T04:24:57.654Z,101376.55
2018-12-06T04:27:27.728Z,101369.24
2018-12-06T04:29:57.749Z,101356.89
2018-12-06T04:32:27.992Z,101348.80
2018-12-06T04:34:57.686Z,101349.25
2018-12-06T04:37:27.740Z,101338.41
2018-12-06T04:39:57.835Z,101347.87
2018-12-06T04:42:27.953Z,101348.60
2018-12-06T04:44:57.712Z,101349.93
2018-12-06T04:47:28.034Z,101336.88
2018-12-06T04:49:58.096Z,101328.25
2018-12-06T04:52:27.946Z,101322.09
2018-12-06T04:54:57.929Z,101322.46
2018-12-06T04:57:28.021Z,101326.30
2018-12-06T04:59:58.442Z,101322.62
2018-12-06T05:02:28.780Z,101327.31
2018-12-06T05:04:58.615Z,101332.81
2018-12-06T05:07:28.720Z,101327.36
2018-12-06T05:09:58.691Z,101324.60
2018-12-06T05:12:29.096Z,101318.16
2018-12-06T05:14:59.076Z,101311.23
2018-12-06T05:17:29.112Z,101300.11
2018-12-06T05:19:59.143Z,101295.98
2018-12-06T05:22:29.147Z,101283.98
2018-12-06T05:24:59.379Z,101281.28
2018-12-06T05:27:29.333Z,101278.06
2018-12-06T05:29:59.311Z,101272.05
2018-12-06T05:32:29.386Z,101271.06
2018-12-06T05:34:59.343Z,101278.55
2018-12-06T05:37:29.273Z,101296.91
2018-12-06T05:39:59.417Z,101304.66
2018-12-06T05:42:29.355Z,101309.84
2018-12-06T05:44:59.342Z,101318.14
2018-12-06T05:47:29.377Z,101320.18
2018-12-06T05:49:59.317Z,101323.62
2018-12-06T05:52:28.688Z,101324.45
2018-12-06T05:54:58.001Z,101310.55
2018-12-06T05:57:27.351Z,101315.55
2018-12-06T05:59:56.687Z,101312.20
2018-12-06T06:02:26.059Z,101321.79
2018-12-06T06:04:55.513Z,101322.07
2018-12-06T06:07:24.894Z,101325.31
2018-12-06T06:09:54.157Z,101341.08
2018-12-06T06:12:23.590Z,101338.80
2018-12-06T06:14:53.031Z,101341.02
2018-12-06T06:17:22.423Z,101332.75
2018-12-06T06:19:51.804Z,101331.32
2018-12-06T06:22:21.714Z,101332.07
2018-12-06T06:24:52.470Z,101322.81
2018-12-06T06:27:21.791Z,101324.46
2018-12-06T06:29:51.074Z,101324.52
2018-12-06T06:32:20.470Z,101331.20
2018-12-06T06:34:49.821Z,101328.75
2018-12-06T06:37:19.233Z,101331.87
2018-12-06T06:39:51.459Z,101340.45
2018-12-06T06:42:20.767Z,101346.10
2018-12-06T06:44:50.101Z,101356.76
2018-12-06T06:47:19.492Z,101362.62
2018-12-06T06:49:48.778Z,101364.21
2018-12-06T06:52:18.088Z,101360.59
2018-12-06T06:54:47.457Z,101358.35
2018-12-06T06:57:16.758Z,101367.62
2018-12-06T06:59:49.041Z,101370.52
2018-12-06T07:02:18.468Z,101366.91
2018-12-06T07:04:47.855Z,101371.17
2018-12-06T07:07:17.294Z,101374.50
2018-12-06T07:09:46.751Z,101380.38
2018-12-06T07:12:16.005Z,101382.87
2018-12-06T07:14:45.303Z,101389.07
2018-12-06T07:17:15.279Z,101393.94
2018-12-06T07:19:44.663Z,101388.19
2018-12-06T07:22:14.072Z,101388.06
2018-12-06T07:24:43.401Z,101391.24
2018-12-06T07:27:12.681Z,101401.92
2018-12-06T07:29:42.026Z,101401.59
2018-12-06T07:32:11.558Z,101401.42
2018-12-06T07:34:40.891Z,101409.13
2018-12-06T07:37:10.186Z,101404.55
2018-12-06T07:39:39.507Z,101404.08
2018-12-06T07:42:08.799Z,101396.77
2018-12-06T07:44:38.110Z,101396.59
2018-12-06T07:47:07.388Z,101388.34
2018-12-06T07:49:36.692Z,101380.09
2018-12-06T07:52:06.059Z,101376.05
2018-12-06T07:54:35.394Z,101364.56
2018-12-06T07:57:04.729Z,101353.86
2018-12-06T07:59:34.205Z,101338.16
2018-12-06T08:02:03.539Z,101347.75
2018-12-06T08:04:32.923Z,101344.20
2018-12-06T08:07:02.669Z,101335.63
2018-12-06T08:09:32.552Z,101335.14
2018-12-06T08:12:02.981Z,101328.16
2018-12-06T08:14:32.853Z,101328.02
2018-12-06T08:17:02.915Z,101338.94
2018-12-06T08:19:32.948Z,101347.37
2018-12-06T08:22:02.961Z,101364.03
2018-12-06T08:24:33.377Z,101368.20
2018-12-06T08:27:03.340Z,101374.05
2018-12-06T08:29:33.398Z,101373.70
2018-12-06T08:32:03.432Z,101379.75
2018-12-06T08:34:33.380Z,101386.55
2018-12-06T08:37:03.461Z,101386.00
2018-12-06T08:39:33.592Z,101384.00
2018-12-06T08:42:03.712Z,101389.20
2018-12-06T08:44:33.632Z,101385.42
2018-12-06T08:47:03.539Z,101376.41
2018-12-06T08:49:33.544Z,101374.27
2018-12-06T08:52:03.979Z,101382.09
2018-12-06T08:54:33.896Z,101374.61
2018-12-06T08:57:04.074Z,101367.19
2018-12-06T08:59:33.810Z,101355.69
2018-12-06T09:02:04.017Z,101346.14
2018-12-06T09:04:33.914Z,101348.55
2018-12-06T09:07:03.984Z,101348.53
2018-12-06T09:09:33.958Z,101347.98
2018-12-06T09:12:04.088Z,101346.99
2018-12-06T09:14:33.929Z,101330.66
2018-12-06T09:17:03.261Z,101329.97
2018-12-06T09:19:32.550Z,101324.03
2018-12-06T09:22:01.981Z,101314.91
2018-12-06T09:24:31.271Z,101321.27
2018-12-06T09:27:00.616Z,101317.72
2018-12-06T09:29:29.950Z,101310.75
2018-12-06T09:31:59.264Z,101318.06
2018-12-06T09:34:28.583Z,101308.36
2018-12-06T09:36:57.951Z,101306.86
2018-12-06T09:39:27.284Z,101306.39
2018-12-06T09:41:56.571Z,101302.31
2018-12-06T09:44:25.945Z,101306.55
2018-12-06T09:46:55.554Z,101306.19
2018-12-06T09:49:24.880Z,101307.84
2018-12-06T09:51:54.167Z,101297.77
2018-12-06T09:54:23.450Z,101304.97
2018-12-06T09:56:52.786Z,101309.35
2018-12-06T09:59:22.094Z,101322.55
2018-12-06T10:01:51.502Z,101325.31
2018-12-06T10:04:20.804Z,101333.76
2018-12-06T10:06:50.215Z,101340.92
2018-12-06T10:09:19.514Z,101342.39
2018-12-06T10:11:48.878Z,101343.04
2018-12-06T10:14:19.694Z,101340.77
2018-12-06T10:16:49.294Z,101334.73
2018-12-06T10:19:18.668Z,101326.45
2018-12-06T10:21:47.978Z,101327.80
2018-12-06T10:24:17.286Z,101328.45
2018-12-06T10:26:46.658Z,101326.97
2018-12-06T10:29:15.970Z,101331.69
2018-12-06T10:31:45.272Z,101320.64
2018-12-06T10:34:14.579Z,101322.59
2018-12-06T10:36:45.450Z,101311.22
2018-12-06T10:39:14.737Z,101309.57
2018-12-06T10:41:44.381Z,101299.98
2018-12-06T10:44:29.121Z,101280.50
2018-12-06T10:46:58.478Z,101263.11
2018-12-06T10:49:27.824Z,101256.59
2018-12-06T10:51:57.165Z,101253.83
2018-12-06T10:54:26.482Z,101246.69
2018-12-06T10:56:55.938Z,101258.53
2018-12-06T10:59:25.278Z,101257.38
2018-12-06T11:01:59.899Z,101256.76
2018-12-06T11:04:35.670Z,101262.23
2018-12-06T11:07:07.276Z,101267.13
2018-12-06T11:09:36.592Z,101258.20
2018-12-06T11:12:06.095Z,101260.28
2018-12-06T11:14:35.437Z,101263.86
2018-12-06T11:17:04.913Z,101252.84
2018-12-06T11:19:34.391Z,101253.29
2018-12-06T11:22:03.917Z,101255.50
2018-12-06T11:24:35.800Z,101256.95
2018-12-06T11:27:05.132Z,101264.96
2018-12-06T11:29:34.535Z,101267.71
2018-12-06T11:32:03.826Z,101265.65
2018-12-06T11:34:33.150Z,101271.63
2018-12-06T11:37:02.483Z,101281.55
2018-12-06T11:39:31.763Z,101276.34
2018-12-06T11:42:01.137Z,101278.25
2018-12-06T11:44:30.455Z,101291.78
2018-12-06T11:46:59.803Z,101297.98
2018-12-06T11:49:29.107Z,101297.83
2018-12-06T11:51:58.399Z,101280.38
2018-12-06T11:54:27.716Z,101271.39
2018-12-06T11:56:57.006Z,101283.64
2018-12-06T11:59:26.344Z,101288.66
2018-12-06T12:01:55.776Z,101287.02
2018-12-06T12:04:25.131Z,101290.25
2018-12-06T12:06:54.464Z,101286.83
2018-12-06T12:09:23.726Z,101281.61
2018-12-06T12:12:35.570Z,101273.03
2018-12-06T12:15:05.621Z,101274.43
2018-12-06T12:17:34.976Z,101296.14
2018-12-06T12:20:05.534Z,101304.25
2018-12-06T12:22:35.003Z,101285.67
2018-12-06T12:25:04.292Z,101302.27
2018-12-06T12:27:33.624Z,101298.33
2018-12-06T12:30:02.912Z,101299.97
2018-12-06T12:32:32.278Z,101297.64
2018-12-06T12:35:01.603Z,101298.98
2018-12-06T12:37:31.008Z,101293.95
2018-12-06T12:40:00.343Z,101294.73
2018-12-06T12:42:29.688Z,101292.62
2018-12-06T12:44:58.951Z,101288.04
2018-12-06T12:47:28.348Z,101295.55
2018-12-06T12:49:57.677Z,101298.12
2018-12-06T12:52:27.032Z,101289.50
2018-12-06T12:54:56.310Z,101280.00
2018-12-06T12:57:25.646Z,101282.11
2018-12-06T12:59:55.830Z,101284.21
2018-12-06T13:02:25.168Z,101280.64
2018-12-06T13:04:54.473Z,101248.09
2018-12-06T13:07:23.835Z,101258.16
2018-12-06T13:09:53.141Z,101283.58
2018-12-06T13:12:22.781Z,101268.97
2018-12-06T13:14:52.070Z,101270.34
2018-12-06T13:17:21.518Z,101265.80
2018-12-06T13:19:50.945Z,101263.29
2018-12-06T13:22:20.288Z,101266.11
2018-12-06T13:24:49.573Z,101248.00
2018-12-06T13:27:18.926Z,101234.46
2018-12-06T13:29:48.215Z,101234.66
2018-12-06T13:32:17.580Z,101234.42
2018-12-06T13:34:46.893Z,101230.66
2018-12-06T13:37:16.199Z,101238.55
2018-12-06T13:39:45.572Z,101243.84
2018-12-06T13:42:15.147Z,101245.64
2018-12-06T13:44:44.477Z,101250.02
2018-12-06T13:47:13.823Z,101248.05
2018-12-06T13:49:43.140Z,101247.70
2018-12-06T13:52:13.153Z,101249.83
2018-12-06T13:54:49.443Z,101251.56
2018-12-06T13:57:21.990Z,101244.33
2018-12-06T13:59:51.448Z,101243.22
2018-12-06T14:02:20.810Z,101237.66
2018-12-06T14:04:50.157Z,101243.73
2018-12-06T14:07:19.479Z,101250.08
2018-12-06T14:09:48.790Z,101239.34
2018-12-06T14:12:18.157Z,101239.91
2018-12-06T14:14:47.497Z,101249.45
2018-12-06T14:17:16.845Z,101251.75
2018-12-06T14:19:46.200Z,101252.02
2018-12-06T14:22:15.556Z,101257.86
2018-12-06T14:24:44.840Z,101270.05
2018-12-06T14:27:14.471Z,101267.88
2018-12-06T14:29:44.375Z,101269.36
2018-12-06T14:32:14.374Z,101270.63
2018-12-06T14:34:44.406Z,101266.39
2018-12-06T14:37:14.364Z,101255.27
2018-12-06T14:39:44.493Z,101237.39
2018-12-06T14:42:14.457Z,101230.95
2018-12-06T14:44:44.540Z,101240.73
2018-12-06T14:47:18.795Z,101243.86
2018-12-06T14:49:48.128Z,101256.63
2018-12-06T14:52:17.455Z,101269.36
2018-12-06T14:54:46.787Z,101275.72
2018-12-06T14:57:16.078Z,101275.01
2018-12-06T14:59:45.434Z,101272.58
2018-12-06T15:02:14.756Z,101270.75
2018-12-06T15:04:44.786Z,101267.25
2018-12-06T15:07:14.705Z,101270.50
2018-12-06T15:09:44.712Z,101279.30
2018-12-06T15:12:14.729Z,101277.16
2018-12-06T15:14:44.793Z,101265.84
2018-12-06T15:17:14.713Z,101254.41
2018-12-06T15:19:44.740Z,101259.03
2018-12-06T15:22:14.849Z,101268.11
2018-12-06T15:24:44.203Z,101266.78
2018-12-06T15:27:13.491Z,101261.24
2018-12-06T15:29:43.188Z,101251.31
2018-12-06T15:32:12.502Z,101244.42
2018-12-06T15:34:41.763Z,101247.16
2018-12-06T15:37:13.228Z,101250.34
2018-12-06T15:39:42.591Z,101254.72
2018-12-06T15:42:11.959Z,101248.27
2018-12-06T15:44:41.422Z,101247.30
2018-12-06T15:47:10.728Z,101241.47
2018-12-06T15:49:40.066Z,101241.93
2018-12-06T15:52:09.462Z,101244.77
2018-12-06T15:54:38.763Z,101246.93
2018-12-06T15:57:08.055Z,101243.61
2018-12-06T15:59:37.343Z,101239.66
2018-12-06T16:02:06.789Z,101239.70
2018-12-06T16:04:36.105Z,101236.21
2018-12-06T16:07:05.561Z,101233.19
2018-12-06T16:09:34.860Z,101231.42
2018-12-06T16:12:04.279Z,101241.88
2018-12-06T16:14:33.623Z,101243.64
2018-12-06T16:17:02.926Z,101242.56
2018-12-06T16:19:32.337Z,101243.78
2018-12-06T16:22:01.796Z,101239.51
2018-12-06T16:24:31.204Z,101246.13
2018-12-06T16:27:00.589Z,101234.17
2018-12-06T16:29:29.911Z,101237.11
2018-12-06T16:31:59.316Z,101235.23
2018-12-06T16:34:28.693Z,101240.02
2018-12-06T16:36:58.019Z,101243.84
2018-12-06T16:39:27.423Z,101246.78
2018-12-06T16:41:56.765Z,101244.52
2018-12-06T16:44:26.106Z,101232.88
2018-12-06T16:46:55.605Z,101237.02
2018-12-06T16:49:25.198Z,101231.51
2018-12-06T16:51:54.765Z,101229.64
2018-12-06T16:54:24.373Z,101238.20
2018-12-06T16:56:54.107Z,101232.68
2018-12-06T16:59:23.495Z,101230.53
2018-12-06T17:01:52.822Z,101230.02
2018-12-06T17:04:22.180Z,101232.06
2018-12-06T17:06:51.499Z,101224.46
2018-12-06T17:09:22.156Z,101218.86
2018-12-06T17:11:51.512Z,101219.20
2018-12-06T17:14:24.382Z,101216.05
2018-12-06T17:16:57.075Z,101217.02
2018-12-06T17:19:26.456Z,101227.67
2018-12-06T17:21:55.808Z,101233.39
2018-12-06T17:24:25.176Z,101230.92
2018-12-06T17:26:54.454Z,101234.97
2018-12-06T17:29:23.767Z,101230.28
2018-12-06T17:31:53.423Z,101225.64
2018-12-06T17:34:22.692Z,101223.44
2018-12-06T17:36:52.131Z,101223.30
2018-12-06T17:39:21.839Z,101221.57
2018-12-06T17:41:51.794Z,101221.62
2018-12-06T17:44:21.880Z,101213.27
2018-12-06T17:46:53.126Z,101218.97
2018-12-06T17:49:22.487Z,101227.89
2018-12-06T17:56:55.576Z,101218.66
2018-12-06T17:59:24.939Z,101220.42
2018-12-06T18:01:54.327Z,101215.07
2018-12-06T18:04:23.619Z,101221.13
2018-12-06T18:06:53.584Z,101218.95
2018-12-06T18:09:23.642Z,101233.03
2018-12-06T18:11:53.640Z,101227.98
2018-12-06T18:14:23.585Z,101222.19
2018-12-06T18:16:53.736Z,101232.05
2018-12-06T18:19:23.768Z,101224.16
2018-12-06T18:21:53.641Z,101225.86
2018-12-06T18:24:23.606Z,101222.26
2018-12-06T18:26:53.816Z,101214.56
2018-12-06T18:29:23.553Z,101211.72
2018-12-06T18:31:53.712Z,101196.59
2018-12-06T18:34:23.579Z,101192.73
2018-12-06T18:36:53.653Z,101196.97
2018-12-06T18:39:23.612Z,101188.97
2018-12-06T18:41:53.710Z,101175.56
2018-12-06T18:44:23.738Z,101174.73
2018-12-06T18:46:53.868Z,101169.58
2018-12-06T18:49:23.881Z,101183.34
2018-12-06T18:51:53.958Z,101181.34
2018-12-06T18:54:23.839Z,101178.88
2018-12-06T18:57:01.669Z,101185.55
2018-12-06T18:59:30.995Z,101184.55
2018-12-06T19:02:00.461Z,101173.47
2018-12-06T19:04:29.768Z,101168.99
2018-12-06T19:06:59.226Z,101161.19
2018-12-06T19:09:33.056Z,101160.86
2018-12-06T19:12:02.527Z,101153.82
2018-12-06T19:14:35.695Z,101146.20
2018-12-06T19:17:05.376Z,101149.14
2018-12-06T19:19:34.663Z,101152.78
2018-12-06T19:22:04.044Z,101147.17
2018-12-06T19:24:33.389Z,101143.27
2018-12-06T19:27:02.789Z,101141.81
2018-12-06T19:29:35.149Z,101140.25
2018-12-06T19:32:04.563Z,101144.09
2018-12-06T19:34:34.121Z,101136.27
2018-12-06T19:37:03.420Z,101144.95
2018-12-06T19:39:32.776Z,101135.28
2018-12-06T19:42:02.118Z,101142.90
2018-12-06T19:44:31.454Z,101138.00
2018-12-06T19:47:00.784Z,101135.33
2018-12-06T19:49:34.461Z,101137.90
2018-12-06T19:52:07.634Z,101134.55
2018-12-06T19:54:42.742Z,101137.11
2018-12-06T19:57:18.659Z,101129.18
2018-12-06T19:59:53.397Z,101117.99
2018-12-06T20:02:29.366Z,101104.18
2018-12-06T20:04:58.815Z,101108.70
2018-12-06T20:07:28.628Z,101095.78
2018-12-06T20:09:58.845Z,101098.80
2018-12-06T20:12:28.197Z,101099.30
2018-12-06T20:14:57.465Z,101094.13
2018-12-06T20:17:27.483Z,101094.47
2018-12-06T20:19:57.488Z,101092.09
2018-12-06T20:22:27.648Z,101090.81
2018-12-06T20:24:57.502Z,101082.47
2018-12-06T20:27:27.514Z,101074.71
2018-12-06T20:29:57.472Z,101077.13
2018-12-06T20:32:27.603Z,101077.19
2018-12-06T20:34:56.939Z,101074.16
2018-12-06T20:37:26.195Z,101078.45
2018-12-06T20:39:55.534Z,101087.77
2018-12-06T20:42:24.790Z,101071.97
2018-12-06T20:44:54.136Z,101071.80
2018-12-06T20:47:23.446Z,101068.18
2018-12-06T20:49:55.622Z,101063.87
2018-12-06T20:52:24.960Z,101057.63
2018-12-06T20:54:54.368Z,101060.73
2018-12-06T20:57:23.692Z,101059.78
2018-12-06T20:59:53.018Z,101050.93
2018-12-06T21:02:22.323Z,101049.50
2018-12-06T21:04:54.595Z,101041.17
2018-12-06T21:07:23.855Z,101042.31
2018-12-06T21:09:53.181Z,101028.00
2018-12-06T21:12:22.569Z,101024.52
2018-12-06T21:14:51.939Z,101031.59
2018-12-06T21:17:21.250Z,101032.28
2018-12-06T21:19:50.695Z,101035.86
2018-12-06T21:24:46.554Z,101023.52
2018-12-06T21:27:15.943Z,101021.41
2018-12-06T21:29:48.031Z,101017.51
2018-12-06T21:32:17.316Z,101008.90
2018-12-06T21:34:46.643Z,101002.20
2018-12-06T21:37:15.909Z,101005.16
2018-12-06T21:39:45.252Z,100993.30
2018-12-06T21:42:14.565Z,100995.38
2018-12-06T21:44:43.871Z,100997.88
2018-12-06T21:47:17.287Z,101001.23
2018-12-06T21:49:46.631Z,101002.53
2018-12-06T21:52:15.951Z,101003.64
2018-12-06T21:54:45.287Z,101008.03
2018-12-06T21:57:14.590Z,101007.88
2018-12-06T21:59:43.935Z,101006.69
2018-12-06T22:02:24.685Z,101008.03
2018-12-06T22:04:54.151Z,101009.19
2018-12-06T22:07:23.477Z,101002.89
2018-12-06T22:09:52.946Z,101008.89
2018-12-06T22:12:22.250Z,101010.83
2018-12-06T22:14:51.547Z,101006.16
2018-12-06T22:17:27.588Z,101005.59
2018-12-06T22:19:56.885Z,101003.84
2018-12-06T22:22:26.226Z,101000.86
2018-12-06T22:24:55.616Z,100998.70
2018-12-06T22:27:24.946Z,100997.70
2018-12-06T22:29:54.218Z,101003.72
2018-12-06T22:32:23.486Z,100995.66
2018-12-06T22:34:53.418Z,100992.86
2018-12-06T22:37:22.742Z,100989.58
2018-12-06T22:39:52.092Z,100987.76
2018-12-06T22:42:21.379Z,100979.09
2018-12-06T22:44:51.154Z,100986.53
2018-12-06T22:47:20.685Z,100983.95
2018-12-06T22:49:49.982Z,100979.75
2018-12-06T22:52:19.306Z,100975.98
2018-12-06T22:54:49.683Z,100968.47
2018-12-06T22:57:19.155Z,100963.35
2018-12-06T22:59:48.483Z,100960.19
2018-12-06T23:02:17.945Z,100964.59
2018-12-06T23:04:47.211Z,100968.51
2018-12-06T23:07:16.607Z,100968.13
2018-12-06T23:09:45.890Z,100966.44
2018-12-06T23:12:15.225Z,100963.89
2018-12-06T23:14:44.558Z,100963.98
2018-12-06T23:17:13.877Z,100957.11
2018-12-06T23:19:43.192Z,100948.08
2018-12-06T23:22:12.536Z,100943.00
2018-12-06T23:24:41.889Z,100947.70
2018-12-06T23:27:11.213Z,100943.69
2018-12-06T23:29:40.559Z,100936.92
2018-12-06T23:32:09.906Z,100941.37
2018-12-06T23:34:39.316Z,100941.77
2018-12-06T23:37:11.508Z,100941.45
2018-12-06T23:39:40.825Z,100944.38
2018-12-06T23:42:10.138Z,100940.48
2018-12-06T23:44:39.450Z,100941.73
2018-12-06T23:47:08.819Z,100931.75
2018-12-06T23:49:38.142Z,100938.92
2018-12-06T23:52:07.447Z,100935.95
2018-12-06T23:54:36.714Z,100931.97
2018-12-06T23:57:06.016Z,100931.34
2018-12-06T23:59:35.327Z,100936.54
